Time;durP1;ratioP1;P1;durP2;ratioP2;P2;SDS_P1;SDS_P2;PMS_P1;PMS_P2;Temp;Humidity;BMP_temperature;BMP_pressure;BME280_temperature;BME280_humidity;BME280_pressure;Samples;Min_cycle;Max_cycle;Signal;HPM_P1;HPM_P2
2021/01/11 00:00:27;;;;;;;18.77;14.73;;;1.30;43.00;;;;;;10361071;28;20842;-69
2021/01/11 00:05:29;;;;;;;20.37;16.17;;;1.40;43.00;;;;;;10367114;28;20257;-69
2021/01/11 00:10:31;;;;;;;19.63;16.13;;;1.40;42.80;;;;;;10365681;28;20368;-69
2021/01/11 00:15:35;;;;;;;19.00;15.23;;;1.40;42.70;;;;;;10369044;28;20234;-69
2021/01/11 00:20:38;;;;;;;21.07;17.03;;;1.40;42.70;;;;;;10367677;28;20280;-69
2021/01/11 00:25:41;;;;;;;19.67;15.97;;;1.50;42.70;;;;;;10368960;28;20832;-69
2021/01/11 00:30:44;;;;;;;21.83;16.63;;;1.50;42.60;;;;;;10353747;28;20615;-69
2021/01/11 00:35:46;;;;;;;22.10;17.20;;;1.40;42.30;;;;;;10354204;28;20231;-69
2021/01/11 00:40:48;;;;;;;26.03;17.63;;;1.40;42.20;;;;;;10364426;28;20238;-69
2021/01/11 00:45:51;;;;;;;28.57;19.23;;;1.30;42.20;;;;;;10357486;28;20585;-69
2021/01/11 00:50:53;;;;;;;19.53;14.77;;;1.30;42.40;;;;;;10359216;28;20256;-69
2021/01/11 00:55:55;;;;;;;24.07;17.17;;;1.20;42.10;;;;;;10341045;28;20245;-69
2021/01/11 01:00:59;;;;;;;19.70;15.23;;;1.20;42.00;;;;;;10354775;28;20238;-69
2021/01/11 01:06:01;;;;;;;15.47;13.33;;;1.10;41.90;;;;;;10351398;28;20237;-69
2021/01/11 01:11:03;;;;;;;19.90;14.20;;;1.10;41.90;;;;;;10361011;28;20597;-70
2021/01/11 01:16:07;;;;;;;21.30;15.83;;;1.10;41.80;;;;;;10352468;28;20727;-69
2021/01/11 01:21:09;;;;;;;19.70;14.17;;;1.00;41.70;;;;;;10353867;28;20238;-69
2021/01/11 01:26:12;;;;;;;19.43;14.43;;;1.00;41.50;;;;;;10364194;28;20843;-69
2021/01/11 01:31:15;;;;;;;18.00;13.67;;;0.90;41.50;;;;;;10357782;28;20242;-69
2021/01/11 01:36:19;;;;;;;14.73;10.80;;;0.90;41.30;;;;;;10348500;28;20223;-69
2021/01/11 01:41:21;;;;;;;14.37;11.77;;;0.80;41.10;;;;;;10354546;28;20321;-69
2021/01/11 01:46:28;;;;;;;17.37;13.10;;;0.70;41.00;;;;;;10353183;28;20249;-69
2021/01/11 01:51:31;;;;;;;19.10;13.67;;;0.70;40.90;;;;;;10364208;28;20776;-69
2021/01/11 01:56:33;;;;;;;18.03;13.13;;;0.70;40.90;;;;;;10357339;28;20230;-69
2021/01/11 02:01:38;;;;;;;16.23;12.13;;;0.60;40.60;;;;;;10366705;28;20226;-69
2021/01/11 02:06:43;;;;;;;19.43;12.73;;;0.50;40.30;;;;;;10361363;28;20314;-69
2021/01/11 02:11:51;;;;;;;20.77;13.23;;;0.40;40.60;;;;;;10362863;28;20234;-69
2021/01/11 02:17:01;;;;;;;18.73;13.93;;;0.40;40.60;;;;;;10347234;28;20605;-69
2021/01/11 02:22:08;;;;;;;18.13;13.77;;;0.30;40.50;;;;;;10349766;28;20230;-70
2021/01/11 02:27:22;;;;;;;18.50;13.47;;;0.40;40.50;;;;;;10351560;28;20230;-69
2021/01/11 02:32:27;;;;;;;16.53;11.87;;;0.30;40.30;;;;;;10358711;28;20252;-69
2021/01/11 02:37:31;;;;;;;21.40;13.43;;;0.30;40.40;;;;;;10366341;28;20233;-69
2021/01/11 02:42:33;;;;;;;20.80;13.63;;;0.20;40.30;;;;;;10348284;28;20222;-71
2021/01/11 02:48:03;;;;;;;22.33;15.30;;;0.20;40.20;;;;;;10365577;28;20226;-71
2021/01/11 02:53:07;;;;;;;19.83;13.40;;;0.20;39.80;;;;;;10363972;28;20219;-71
2021/01/11 02:58:14;;;;;;;23.27;14.73;;;0.10;40.10;;;;;;10359411;28;20242;-71
2021/01/11 03:03:19;;;;;;;19.30;12.80;;;0.10;40.10;;;;;;10361194;28;20725;-71
2021/01/11 03:08:23;;;;;;;16.83;11.27;;;0.00;39.90;;;;;;10355373;28;20245;-73
2021/01/11 03:13:25;;;;;;;17.00;12.50;;;0.00;40.00;;;;;;10360968;28;20254;-70
2021/01/11 03:18:28;;;;;;;18.13;11.83;;;0.00;40.10;;;;;;10357861;28;20230;-70
2021/01/11 03:23:31;;;;;;;19.47;13.33;;;-0.10;39.90;;;;;;10367650;28;20223;-70
2021/01/11 03:28:33;;;;;;;17.63;13.47;;;-0.10;39.90;;;;;;10378312;28;20761;-70
2021/01/11 03:33:36;;;;;;;16.27;12.43;;;-0.20;40.00;;;;;;10364905;28;20318;-71
2021/01/11 03:38:39;;;;;;;15.60;11.10;;;-0.20;40.10;;;;;;10343775;28;20227;-71
2021/01/11 03:43:43;;;;;;;17.83;12.83;;;-0.30;40.20;;;;;;10371477;28;20226;-71
2021/01/11 03:48:46;;;;;;;35.03;14.00;;;-0.40;40.30;;;;;;10359219;28;20236;-71
2021/01/11 03:53:48;;;;;;;38.10;14.47;;;-0.40;40.10;;;;;;10370969;28;20227;-71
2021/01/11 03:58:50;;;;;;;28.47;13.53;;;-0.60;40.10;;;;;;10351132;28;20742;-71
2021/01/11 04:03:54;;;;;;;42.77;14.00;;;-0.70;40.30;;;;;;10351145;28;20719;-71
2021/01/11 04:08:56;;;;;;;31.80;13.97;;;-0.80;40.60;;;;;;10380615;28;20236;-71
2021/01/11 04:13:58;;;;;;;41.13;12.37;;;-0.90;40.90;;;;;;10380521;28;20239;-72
2021/01/11 04:19:01;;;;;;;22.13;11.53;;;-0.90;41.00;;;;;;10370360;28;20230;-71
2021/01/11 04:24:05;;;;;;;81.93;12.37;;;-1.00;41.00;;;;;;10353126;28;20386;-71
2021/01/11 04:29:07;;;;;;;30.20;11.53;;;-1.10;41.00;;;;;;10365013;28;20239;-71
2021/01/11 04:34:10;;;;;;;15.70;10.23;;;-1.10;41.20;;;;;;10365421;28;20230;-71
2021/01/11 04:39:13;;;;;;;22.70;10.90;;;-1.20;41.30;;;;;;10375504;28;20238;-71
2021/01/11 04:44:17;;;;;;;17.13;11.37;;;-1.20;41.50;;;;;;10378249;28;20226;-71
2021/01/11 04:49:20;;;;;;;12.80;9.30;;;-1.20;41.40;;;;;;10363675;28;20238;-71
2021/01/11 04:54:24;;;;;;;14.37;10.43;;;-1.30;41.50;;;;;;10372976;28;20230;-71
2021/01/11 04:59:27;;;;;;;15.73;11.07;;;-1.20;41.60;;;;;;10375797;28;20607;-72
2021/01/11 05:04:30;;;;;;;14.97;10.93;;;-1.20;41.60;;;;;;10365379;28;20600;-71
2021/01/11 05:09:33;;;;;;;14.70;10.53;;;-1.10;41.60;;;;;;10386842;28;20225;-71
2021/01/11 05:14:35;;;;;;;12.03;8.57;;;-1.10;41.50;;;;;;10360469;28;20237;-71
2021/01/11 05:19:38;;;;;;;12.60;9.43;;;-1.10;41.60;;;;;;10374185;28;20771;-71
2021/01/11 05:24:42;;;;;;;12.40;9.10;;;-1.00;41.80;;;;;;10369364;28;20226;-71
2021/01/11 05:29:45;;;;;;;13.70;9.30;;;-1.00;41.90;;;;;;10369884;28;20232;-71
2021/01/11 05:34:49;;;;;;;11.37;9.00;;;-0.90;42.10;;;;;;10378110;28;20248;-71
2021/01/11 05:40:03;;;;;;;15.57;10.43;;;-0.90;42.20;;;;;;10357850;28;20322;-71
2021/01/11 05:45:13;;;;;;;15.03;10.43;;;-0.80;42.30;;;;;;10386445;28;20226;-71
2021/01/11 05:50:17;;;;;;;14.50;9.63;;;-0.80;42.00;;;;;;10370762;28;20595;-71
2021/01/11 05:55:20;;;;;;;13.17;10.03;;;-0.80;41.80;;;;;;10365851;28;20221;-71
2021/01/11 06:00:23;;;;;;;48.07;10.33;;;-0.90;42.00;;;;;;10371376;28;20313;-71
2021/01/11 06:05:28;;;;;;;21.40;10.37;;;-0.90;42.00;;;;;;10375059;28;20234;-71
2021/01/11 06:10:30;;;;;;;11.63;8.93;;;-0.90;42.00;;;;;;10367385;28;20232;-71
2021/01/11 06:15:34;;;;;;;14.77;10.60;;;-1.00;41.90;;;;;;10368047;28;20742;-71
2021/01/11 06:20:43;;;;;;;30.50;10.03;;;-1.00;42.10;;;;;;10373391;28;20221;-71
2021/01/11 06:25:46;;;;;;;26.27;10.03;;;-1.00;42.10;;;;;;10374727;28;20237;-71
2021/01/11 06:30:48;;;;;;;16.53;9.90;;;-1.10;41.90;;;;;;10369813;28;20317;-72
2021/01/11 06:35:53;;;;;;;19.63;9.53;;;-1.20;42.30;;;;;;10363196;28;20254;-71
2021/01/11 06:41:11;;;;;;;31.80;11.00;;;-1.20;42.40;;;;;;10374421;28;20258;-71
2021/01/11 06:46:29;;;;;;;13.97;10.20;;;-1.20;42.80;;;;;;10379033;28;20223;-71
2021/01/11 06:51:40;;;;;;;13.73;9.50;;;-1.20;42.70;;;;;;10380578;28;20237;-71
2021/01/11 06:56:43;;;;;;;20.73;10.47;;;-1.20;42.80;;;;;;10368581;28;20234;-69
2021/01/11 07:01:47;;;;;;;15.83;10.63;;;-1.00;42.70;;;;;;10362585;28;20962;-69
2021/01/11 07:07:00;;;;;;;13.53;10.10;;;-1.10;42.50;;;;;;10362878;28;20746;-69
2021/01/11 07:12:04;;;;;;;20.77;10.80;;;-1.10;42.80;;;;;;10355837;28;20232;-69
2021/01/11 07:17:06;;;;;;;16.47;10.07;;;-1.10;42.80;;;;;;10357730;28;20269;-71
2021/01/11 07:22:11;;;;;;;15.47;10.90;;;-1.10;42.50;;;;;;10356140;28;20226;-72
2021/01/11 07:27:14;;;;;;;15.83;10.47;;;-1.10;42.40;;;;;;10362877;28;20317;-71
2021/01/11 07:32:17;;;;;;;17.20;10.70;;;-1.10;42.30;;;;;;10354518;28;20698;-72
2021/01/11 07:37:20;;;;;;;27.63;12.30;;;-1.10;42.40;;;;;;10347993;28;20392;-72
2021/01/11 07:42:22;;;;;;;21.57;11.90;;;-1.10;42.50;;;;;;10367967;28;20265;-70
2021/01/11 07:47:25;;;;;;;16.70;10.30;;;-1.20;42.40;;;;;;10360866;28;20222;-72
2021/01/11 07:52:29;;;;;;;15.87;10.43;;;-1.20;42.50;;;;;;10376846;28;20223;-72
2021/01/11 07:57:33;;;;;;;19.97;11.13;;;-1.20;42.40;;;;;;10369449;28;20230;-72
2021/01/11 08:02:35;;;;;;;14.63;10.07;;;-1.20;42.40;;;;;;10367233;28;20736;-70
2021/01/11 08:07:38;;;;;;;18.37;10.03;;;-1.30;42.60;;;;;;10358198;28;20234;-71
2021/01/11 08:12:41;;;;;;;16.60;10.43;;;-1.30;42.60;;;;;;10368943;28;20214;-71
2021/01/11 08:17:43;;;;;;;16.97;11.53;;;-1.30;42.40;;;;;;10386171;28;20226;-71
2021/01/11 08:22:47;;;;;;;18.70;10.97;;;-1.30;42.30;;;;;;10364852;28;20754;-71
2021/01/11 08:27:51;;;;;;;17.97;11.40;;;-1.40;42.00;;;;;;10359045;28;20714;-72
2021/01/11 08:32:54;;;;;;;16.47;10.67;;;-1.40;42.20;;;;;;10355489;28;20230;-70
2021/01/11 08:38:00;;;;;;;15.33;10.43;;;-1.50;42.00;;;;;;10364122;28;20288;-70
2021/01/11 08:43:09;;;;;;;15.70;9.80;;;-1.60;42.10;;;;;;10371231;28;20326;-70
2021/01/11 08:48:14;;;;;;;18.37;10.63;;;-1.60;42.30;;;;;;10356340;28;20231;-71
2021/01/11 08:53:25;;;;;;;16.27;10.63;;;-1.70;42.30;;;;;;10379643;28;20226;-71
2021/01/11 08:58:28;;;;;;;19.73;10.77;;;-1.60;42.60;;;;;;10373424;28;20238;-71
2021/01/11 09:03:41;;;;;;;16.73;10.20;;;-1.60;42.00;;;;;;10353003;28;20597;-71
2021/01/11 09:08:44;;;;;;;19.83;10.60;;;-1.70;42.10;;;;;;10358833;28;20232;-71
2021/01/11 09:13:46;;;;;;;15.87;9.87;;;-1.80;42.20;;;;;;10350640;28;20223;-71
2021/01/11 09:18:49;;;;;;;20.57;11.37;;;-1.80;42.40;;;;;;10353960;28;20596;-72
2021/01/11 09:23:52;;;;;;;15.97;10.37;;;-1.90;42.30;;;;;;10354711;28;20229;-71
2021/01/11 09:28:54;;;;;;;21.13;10.93;;;-1.90;42.30;;;;;;10357744;28;20756;-71
2021/01/11 09:33:56;;;;;;;20.97;10.67;;;-1.90;42.80;;;;;;10360503;28;20222;-71
2021/01/11 09:38:59;;;;;;;18.80;11.47;;;-1.90;42.70;;;;;;10360302;28;20222;-72
2021/01/11 09:44:02;;;;;;;18.50;11.70;;;-1.80;42.70;;;;;;10360840;28;20226;-71
2021/01/11 09:49:04;;;;;;;20.50;11.73;;;-1.80;42.90;;;;;;10353448;28;20232;-72
2021/01/11 09:54:08;;;;;;;17.00;10.97;;;-1.70;42.60;;;;;;10368037;28;20606;-72
2021/01/11 09:59:11;;;;;;;16.63;10.13;;;-1.70;42.60;;;;;;10358449;28;20226;-72
2021/01/11 10:04:14;;;;;;;18.03;11.53;;;-1.70;42.60;;;;;;10360507;28;20226;-72
2021/01/11 10:09:19;;;;;;;20.17;10.97;;;-1.70;42.60;;;;;;10360197;28;20319;-72
2021/01/11 10:14:22;;;;;;;20.63;12.47;;;-1.70;43.10;;;;;;10359508;28;20257;-72
2021/01/11 10:19:25;;;;;;;24.90;13.10;;;-1.60;43.10;;;;;;10362513;28;20774;-72
2021/01/11 10:24:28;;;;;;;21.27;12.40;;;-1.50;43.30;;;;;;10352821;28;20246;-72
2021/01/11 10:29:30;;;;;;;21.10;11.40;;;-1.30;43.40;;;;;;10364318;28;20227;-72
2021/01/11 10:34:33;;;;;;;18.03;11.23;;;-1.30;43.10;;;;;;10362271;28;20607;-72
2021/01/11 10:39:36;;;;;;;21.00;13.20;;;-1.20;43.10;;;;;;10361082;28;20318;-72
2021/01/11 10:44:39;;;;;;;21.77;12.07;;;-1.10;43.60;;;;;;10363188;28;20214;-72
2021/01/11 10:49:41;;;;;;;16.87;10.93;;;-1.00;43.70;;;;;;10357098;28;20722;-72
2021/01/11 10:54:44;;;;;;;17.67;12.13;;;-0.90;43.10;;;;;;10359082;28;20393;-72
2021/01/11 10:59:46;;;;;;;26.03;11.90;;;-0.80;43.10;;;;;;10355983;28;20625;-70
2021/01/11 11:04:48;;;;;;;17.83;11.33;;;-0.70;43.80;;;;;;10362309;28;20237;-72
2021/01/11 11:09:51;;;;;;;20.10;12.23;;;-0.70;43.30;;;;;;10354171;28;20234;-72
2021/01/11 11:14:53;;;;;;;18.50;11.83;;;-0.70;43.10;;;;;;10362955;28;20330;-72
2021/01/11 11:19:56;;;;;;;19.67;12.30;;;-0.60;42.90;;;;;;10360943;28;20293;-72
2021/01/11 11:25:05;;;;;;;19.87;12.40;;;-0.60;42.60;;;;;;10369770;28;20245;-72
2021/01/11 11:30:09;;;;;;;19.77;12.37;;;-0.60;42.50;;;;;;10363705;28;20317;-71
2021/01/11 11:35:12;;;;;;;20.77;11.83;;;-0.70;42.40;;;;;;10366004;28;20238;-72
2021/01/11 11:40:17;;;;;;;19.90;12.70;;;-0.80;42.30;;;;;;10363868;28;20296;-72
2021/01/11 11:45:19;;;;;;;18.23;11.57;;;-0.90;42.40;;;;;;10362172;28;20313;-72
2021/01/11 11:50:21;;;;;;;23.20;13.20;;;-0.90;42.40;;;;;;10365462;28;20244;-72
2021/01/11 11:55:24;;;;;;;18.10;11.97;;;-1.00;42.40;;;;;;10365595;28;20602;-72
2021/01/11 12:00:26;;;;;;;19.40;12.43;;;-1.10;42.60;;;;;;10361979;28;20740;-71
2021/01/11 12:05:48;;;;;;;21.80;12.17;;;-1.20;42.60;;;;;;10365080;28;20627;-72
2021/01/11 12:10:51;;;;;;;17.47;12.20;;;-1.20;42.60;;;;;;10357289;28;20288;-72
2021/01/11 12:15:54;;;;;;;20.33;11.83;;;-1.20;42.80;;;;;;10352456;28;20218;-73
2021/01/11 12:20:56;;;;;;;17.63;11.67;;;-1.20;42.80;;;;;;10363596;28;20265;-72
2021/01/11 12:25:59;;;;;;;18.63;11.30;;;-1.20;42.60;;;;;;10364512;28;20237;-72
2021/01/11 12:31:01;;;;;;;25.43;13.57;;;-1.20;42.50;;;;;;10360953;28;20227;-72
2021/01/11 12:36:04;;;;;;;17.20;11.07;;;-1.20;42.60;;;;;;10358726;28;20711;-72
2021/01/11 12:41:07;;;;;;;16.10;10.63;;;-1.30;42.70;;;;;;10362731;28;20601;-71
2021/01/11 12:46:11;;;;;;;14.43;10.53;;;-1.30;42.70;;;;;;10353838;28;20218;-72
2021/01/11 12:51:14;;;;;;;15.13;10.57;;;-1.30;42.60;;;;;;10357036;28;20249;-68
2021/01/11 12:56:19;;;;;;;14.37;10.47;;;-1.20;42.60;;;;;;10372871;28;20308;-72
2021/01/11 13:01:23;;;;;;;17.67;10.63;;;-1.30;42.50;;;;;;10355152;28;20732;-73
2021/01/11 13:06:27;;;;;;;16.63;10.23;;;-1.30;42.70;;;;;;10354335;28;20230;-73
2021/01/11 13:11:32;;;;;;;15.90;9.93;;;-1.30;42.90;;;;;;10356234;28;20702;-73
2021/01/11 13:16:35;;;;;;;16.73;10.10;;;-1.20;43.00;;;;;;10362227;28;20716;-73
2021/01/11 13:21:38;;;;;;;17.30;10.47;;;-1.10;42.90;;;;;;10375633;28;20229;-73
2021/01/11 13:26:48;;;;;;;18.03;11.17;;;-0.90;42.90;;;;;;10377971;28;20603;-73
2021/01/11 13:31:51;;;;;;;19.50;12.13;;;-0.90;42.60;;;;;;10367774;28;20313;-73
2021/01/11 13:36:56;;;;;;;16.33;10.90;;;-0.90;42.50;;;;;;10366743;28;20230;-73
2021/01/11 13:41:59;;;;;;;16.33;11.30;;;-1.00;42.30;;;;;;10351329;28;20237;-72
2021/01/11 13:47:03;;;;;;;17.30;11.57;;;-1.00;42.20;;;;;;10358562;28;20233;-72
2021/01/11 13:52:06;;;;;;;16.90;11.43;;;-1.10;43.00;;;;;;10358607;28;20236;-72
2021/01/11 13:57:09;;;;;;;19.27;11.87;;;-1.20;42.40;;;;;;10363270;28;20313;-72
2021/01/11 14:02:11;;;;;;;21.63;12.23;;;-1.20;42.60;;;;;;10346041;28;20276;-72
2021/01/11 14:07:13;;;;;;;20.30;11.67;;;-1.20;42.60;;;;;;10357706;28;20230;-72
2021/01/11 14:12:16;;;;;;;17.37;11.33;;;-1.20;42.70;;;;;;10363526;28;20264;-71
2021/01/11 14:17:19;;;;;;;18.60;12.20;;;-1.20;42.80;;;;;;10360813;28;20233;-71
2021/01/11 14:22:21;;;;;;;17.07;11.37;;;-1.20;42.60;;;;;;10366150;28;20230;-71
2021/01/11 14:27:24;;;;;;;21.07;12.63;;;-1.20;43.10;;;;;;10361586;28;20225;-72
2021/01/11 14:32:27;;;;;;;19.70;11.70;;;-1.10;43.20;;;;;;10354912;28;20222;-71
2021/01/11 14:37:29;;;;;;;18.37;12.57;;;-1.10;43.10;;;;;;10355637;28;20234;-71
2021/01/11 14:42:33;;;;;;;19.33;11.43;;;-1.00;43.00;;;;;;10348307;28;20223;-71
2021/01/11 14:47:35;;;;;;;19.77;12.63;;;-1.00;42.60;;;;;;10363115;28;20923;-71
2021/01/11 14:52:38;;;;;;;19.77;12.57;;;-1.00;42.50;;;;;;10344588;28;20228;-72
2021/01/11 14:57:41;;;;;;;17.67;11.53;;;-1.10;42.50;;;;;;10355556;28;20226;-71
2021/01/11 15:02:43;;;;;;;21.30;11.23;;;-1.10;42.40;;;;;;10348405;28;20226;-72
2021/01/11 15:07:45;;;;;;;16.60;11.70;;;-1.20;42.40;;;;;;10355740;28;20710;-71
2021/01/11 15:12:48;;;;;;;18.40;12.07;;;-1.20;42.60;;;;;;10343258;28;20230;-71
2021/01/11 15:17:50;;;;;;;20.20;11.03;;;-1.20;42.60;;;;;;10353219;28;20732;-71
2021/01/11 15:22:52;;;;;;;16.30;11.57;;;-1.20;42.40;;;;;;10373285;28;20252;-71
2021/01/11 15:27:57;;;;;;;18.07;11.57;;;-1.20;42.40;;;;;;10373411;28;20304;-71
2021/01/11 15:32:59;;;;;;;17.73;10.83;;;-1.20;42.40;;;;;;10354523;28;20251;-71
2021/01/11 15:38:02;;;;;;;15.20;10.23;;;-1.30;42.40;;;;;;10349275;28;20310;-70
2021/01/11 15:43:06;;;;;;;18.10;11.03;;;-1.30;42.50;;;;;;10354631;28;20229;-70
2021/01/11 15:48:09;;;;;;;15.87;10.70;;;-1.30;42.40;;;;;;10368914;28;20721;-70
2021/01/11 15:53:11;;;;;;;17.23;10.60;;;-1.30;42.60;;;;;;10348830;28;20234;-71
2021/01/11 15:58:14;;;;;;;17.77;11.67;;;-1.30;42.80;;;;;;10353272;28;20625;-71
2021/01/11 16:03:18;;;;;;;19.33;11.93;;;-1.20;42.80;;;;;;10358284;28;20233;-71
2021/01/11 16:08:21;;;;;;;18.50;12.07;;;-1.10;42.70;;;;;;10359606;28;20230;-71
2021/01/11 16:13:24;;;;;;;19.10;12.43;;;-1.20;42.40;;;;;;10360789;28;20316;-71
2021/01/11 16:18:27;;;;;;;18.53;12.73;;;-1.20;42.50;;;;;;10360821;28;20626;-71
2021/01/11 16:23:36;;;;;;;20.57;14.37;;;-1.20;42.50;;;;;;10358957;28;20222;-72
2021/01/11 16:28:39;;;;;;;21.43;13.93;;;-1.30;42.50;;;;;;10363282;28;20234;-70
2021/01/11 16:33:41;;;;;;;24.30;15.83;;;-1.30;42.70;;;;;;10361296;28;20707;-71
2021/01/11 16:38:44;;;;;;;19.87;13.50;;;-1.30;43.00;;;;;;10362550;28;20230;-68
2021/01/11 16:43:48;;;;;;;20.00;13.00;;;-1.30;43.10;;;;;;10354884;28;20237;-71
2021/01/11 16:48:51;;;;;;;20.20;13.77;;;-1.30;43.00;;;;;;10358049;28;20227;-70
2021/01/11 16:53:54;;;;;;;21.37;13.10;;;-1.20;42.90;;;;;;10361302;28;20226;-71
2021/01/11 16:58:57;;;;;;;25.87;16.60;;;-1.30;42.50;;;;;;10359598;28;20317;-71
2021/01/11 17:04:00;;;;;;;24.03;15.27;;;-1.30;42.60;;;;;;10355959;28;20230;-72
2021/01/11 17:09:03;;;;;;;18.87;12.33;;;-1.50;42.80;;;;;;10359677;28;20225;-71
2021/01/11 17:14:06;;;;;;;22.13;12.67;;;-1.50;43.20;;;;;;10349984;28;20254;-70
2021/01/11 17:19:09;;;;;;;19.30;11.43;;;-1.40;43.30;;;;;;10356173;28;20226;-71
2021/01/11 17:24:18;;;;;;;20.47;13.17;;;-1.40;43.30;;;;;;10364742;28;20309;-71
2021/01/11 17:29:24;;;;;;;21.13;12.87;;;-1.30;43.30;;;;;;10360098;28;20237;-72
2021/01/11 17:34:27;;;;;;;21.40;13.20;;;-1.20;43.20;;;;;;10347038;28;20230;-71
2021/01/11 17:39:31;;;;;;;25.37;16.27;;;-1.20;43.10;;;;;;10357331;28;20230;-71
2021/01/11 17:44:34;;;;;;;71.80;40.90;;;-1.20;43.00;;;;;;10360595;28;20235;-71
2021/01/11 17:49:36;;;;;;;34.63;18.10;;;-1.20;43.00;;;;;;10342540;28;20246;-71
2021/01/11 17:54:38;;;;;;;34.30;21.33;;;-1.20;43.10;;;;;;10354572;28;20695;-71
2021/01/11 17:59:42;;;;;;;25.87;16.07;;;-1.20;43.30;;;;;;10354918;28;20237;-67
2021/01/11 18:04:44;;;;;;;25.40;16.33;;;-1.20;43.50;;;;;;10339509;28;20237;-68
2021/01/11 18:09:46;;;;;;;29.23;16.93;;;-1.10;43.60;;;;;;10342115;28;20746;-68
2021/01/11 18:14:49;;;;;;;24.97;15.73;;;-1.10;43.60;;;;;;10340128;28;20226;-68
2021/01/11 18:19:51;;;;;;;24.83;14.30;;;-1.00;43.60;;;;;;10348401;28;20246;-67
2021/01/11 18:24:54;;;;;;;24.77;14.03;;;-0.90;43.50;;;;;;10344672;28;20272;-68
2021/01/11 18:29:57;;;;;;;23.80;14.30;;;-0.70;43.60;;;;;;10346524;28;20230;-68
2021/01/11 18:34:59;;;;;;;24.03;13.73;;;-0.70;43.50;;;;;;10352582;28;20226;-68
2021/01/11 18:40:01;;;;;;;25.90;14.80;;;-0.70;43.30;;;;;;10336046;28;20529;-69
2021/01/11 18:45:06;;;;;;;22.47;14.17;;;-0.70;43.30;;;;;;10342595;28;20569;-69
2021/01/11 18:50:09;;;;;;;24.33;14.47;;;-0.70;43.30;;;;;;10346416;28;20380;-70
2021/01/11 18:55:12;;;;;;;26.03;14.53;;;-0.70;43.20;;;;;;10360167;28;20635;-70
2021/01/11 19:00:17;;;;;;;25.77;15.73;;;-0.60;43.30;;;;;;10358710;28;20230;-70
2021/01/11 19:05:20;;;;;;;29.17;16.57;;;-0.60;43.20;;;;;;10348851;28;20222;-70
2021/01/11 19:10:22;;;;;;;29.37;16.60;;;-0.60;43.20;;;;;;10354017;28;20720;-70
2021/01/11 19:15:25;;;;;;;28.57;16.30;;;-0.50;43.40;;;;;;10354883;28;20706;-70
2021/01/11 19:20:27;;;;;;;34.53;18.60;;;-0.50;43.30;;;;;;10360426;28;20237;-68
2021/01/11 19:25:30;;;;;;;43.47;27.40;;;-0.40;43.10;;;;;;10357363;28;20926;-71
2021/01/11 19:30:33;;;;;;;33.23;23.10;;;-0.50;43.00;;;;;;10373648;28;20225;-72
2021/01/11 19:35:35;;;;;;;26.33;17.90;;;-0.50;43.10;;;;;;10372980;28;20246;-71
2021/01/11 19:40:42;;;;;;;24.10;15.17;;;-0.50;43.00;;;;;;10362790;28;20254;-71
2021/01/11 19:45:45;;;;;;;24.50;13.97;;;-0.50;43.00;;;;;;10370795;28;20268;-71
2021/01/11 19:50:47;;;;;;;24.87;15.80;;;-0.50;42.90;;;;;;10382351;28;20226;-71
2021/01/11 19:55:50;;;;;;;23.67;14.63;;;-0.50;42.90;;;;;;10381430;28;20234;-71
2021/01/11 20:00:53;;;;;;;23.77;15.20;;;-0.50;42.90;;;;;;10358844;28;20244;-71
2021/01/11 20:05:56;;;;;;;25.57;15.17;;;-0.50;42.90;;;;;;10351420;28;20231;-71
2021/01/11 20:10:58;;;;;;;24.93;15.57;;;-0.40;43.00;;;;;;10356478;28;20236;-71
2021/01/11 20:16:01;;;;;;;25.30;15.63;;;-0.40;42.90;;;;;;10357422;28;20226;-71
2021/01/11 20:21:07;;;;;;;24.13;15.20;;;-0.40;42.70;;;;;;10349116;28;20262;-71
2021/01/11 20:26:10;;;;;;;25.73;15.53;;;-0.40;42.70;;;;;;10359937;28;20786;-72
2021/01/11 20:31:14;;;;;;;22.53;14.57;;;-0.40;42.60;;;;;;10356681;28;20244;-70
2021/01/11 20:36:17;;;;;;;25.17;14.90;;;-0.40;43.30;;;;;;10373727;28;20757;-70
2021/01/11 20:41:19;;;;;;;27.03;15.33;;;-0.40;42.70;;;;;;10378034;28;20230;-70
2021/01/11 20:46:22;;;;;;;27.80;16.90;;;-0.30;42.60;;;;;;10357455;28;20229;-68
2021/01/11 20:51:25;;;;;;;25.37;15.90;;;-0.40;42.30;;;;;;10343829;28;20237;-69
2021/01/11 20:56:36;;;;;;;26.40;16.73;;;-0.20;42.10;;;;;;10345277;28;20696;-68
2021/01/11 21:01:42;;;;;;;21.73;14.07;;;-0.20;42.00;;;;;;10342927;28;20762;-68
2021/01/11 21:06:44;;;;;;;23.17;14.17;;;-0.20;42.10;;;;;;10345672;28;20699;-68
2021/01/11 21:11:47;;;;;;;26.30;15.27;;;-0.20;42.10;;;;;;10362251;28;20234;-68
2021/01/11 21:16:50;;;;;;;22.50;15.43;;;-0.20;42.10;;;;;;10361468;28;20230;-69
2021/01/11 21:21:53;;;;;;;26.47;16.67;;;-0.20;41.90;;;;;;10370062;28;20323;-69
2021/01/11 21:26:56;;;;;;;22.97;15.43;;;-0.20;41.70;;;;;;10377954;28;20429;-69
2021/01/11 21:32:01;;;;;;;23.77;14.93;;;-0.20;41.80;;;;;;10356515;28;20232;-69
2021/01/11 21:37:05;;;;;;;23.70;15.10;;;-0.20;41.30;;;;;;10367482;28;20352;-69
2021/01/11 21:42:11;;;;;;;22.83;15.40;;;-0.30;41.10;;;;;;10375199;28;20237;-69
2021/01/11 21:47:14;;;;;;;28.73;16.93;;;-0.40;41.10;;;;;;10357346;28;20234;-69
2021/01/11 21:52:16;;;;;;;24.10;15.27;;;-0.40;41.20;;;;;;10349182;28;20237;-69
2021/01/11 21:57:21;;;;;;;25.20;15.13;;;-0.50;41.30;;;;;;10355943;28;20261;-69
2021/01/11 22:02:24;;;;;;;24.73;15.17;;;-0.60;41.30;;;;;;10349858;28;20253;-69
2021/01/11 22:07:27;;;;;;;23.03;14.83;;;-0.50;41.60;;;;;;10351746;28;20230;-69
2021/01/11 22:12:29;;;;;;;20.23;12.73;;;-0.60;41.50;;;;;;10344561;28;20230;-69
2021/01/11 22:17:32;;;;;;;19.47;12.97;;;-0.60;41.70;;;;;;10352223;28;20234;-69
2021/01/11 22:22:36;;;;;;;18.00;12.50;;;-0.50;41.50;;;;;;10348782;28;20234;-69
2021/01/11 22:27:38;;;;;;;19.70;12.57;;;-0.50;41.50;;;;;;10343344;28;20231;-69
2021/01/11 22:32:43;;;;;;;20.83;13.27;;;-0.50;41.30;;;;;;10354293;28;20229;-69
2021/01/11 22:37:49;;;;;;;21.00;13.47;;;-0.50;40.90;;;;;;10352913;28;20245;-69
2021/01/11 22:42:51;;;;;;;22.97;13.80;;;-0.60;40.50;;;;;;10357269;28;20226;-69
2021/01/11 22:47:55;;;;;;;21.50;13.97;;;-0.70;40.40;;;;;;10354390;28;20226;-69
2021/01/11 22:52:57;;;;;;;22.20;13.00;;;-0.90;40.40;;;;;;10353444;28;20237;-69
2021/01/11 22:58:00;;;;;;;19.43;12.83;;;-1.00;40.70;;;;;;10361699;28;20241;-69
2021/01/11 23:03:04;;;;;;;22.17;12.60;;;-1.10;40.80;;;;;;10348444;28;20226;-69
2021/01/11 23:08:09;;;;;;;25.03;14.23;;;-1.20;40.80;;;;;;10353307;28;20285;-69
2021/01/11 23:13:15;;;;;;;19.83;13.20;;;-1.30;40.80;;;;;;10357662;28;20226;-69
2021/01/11 23:18:20;;;;;;;21.60;12.83;;;-1.30;40.90;;;;;;10364784;28;20336;-69
2021/01/11 23:23:22;;;;;;;23.07;12.07;;;-1.50;40.90;;;;;;10352157;28;20710;-69
2021/01/11 23:28:26;;;;;;;21.37;12.57;;;-1.50;41.00;;;;;;10361769;28;20313;-69
2021/01/11 23:33:29;;;;;;;20.07;12.73;;;-1.50;41.20;;;;;;10362892;28;20230;-69
2021/01/11 23:38:32;;;;;;;16.50;10.93;;;-1.60;41.30;;;;;;10361476;28;20231;-69
2021/01/11 23:43:34;;;;;;;15.13;10.57;;;-1.50;41.40;;;;;;10364672;28;20302;-69
2021/01/11 23:48:37;;;;;;;23.37;13.37;;;-1.50;41.50;;;;;;10360897;28;20227;-70
2021/01/11 23:53:39;;;;;;;17.67;11.33;;;-1.50;41.40;;;;;;10357069;28;20303;-70
2021/01/11 23:58:43;;;;;;;21.30;13.30;;;-1.50;41.40;;;;;;10369120;28;20226;-70
